Time;durP1;ratioP1;P1;durP2;ratioP2;P2;SDS_P1;SDS_P2;PMS_P1;PMS_P2;Temp;Humidity;BMP_temperature;BMP_pressure;BME280_temperature;BME280_humidity;BME280_pressure;Samples;Min_cycle;Max_cycle;Signal;HPM_P1;HPM_P2
2024/01/29 00:02:15;;;;;;;;;;;18.00;54.90;;;;;;5086493;28;43043;-84
2024/01/29 00:04:40;;;;;;;;;;;18.10;54.90;;;;;;5086093;28;43882;-84
2024/01/29 00:07:06;;;;;;;;;;;18.00;54.90;;;;;;5086296;28;42984;-83
2024/01/29 00:09:32;;;;;;;;;;;18.00;54.90;;;;;;5085921;28;43576;-83
2024/01/29 00:11:59;;;;;;;;;;;18.00;54.90;;;;;;5085622;27;42976;-83
2024/01/29 00:14:25;;;;;;;;;;;18.10;55.10;;;;;;5084836;28;43540;-83
2024/01/29 00:16:50;;;;;;;;;;;18.00;54.90;;;;;;5085895;27;42919;-83
2024/01/29 00:19:16;;;;;;;;;;;18.10;55.00;;;;;;5086054;28;43052;-83
2024/01/29 00:21:41;;;;;;;;;;;18.00;54.90;;;;;;5085357;27;42997;-82
2024/01/29 00:24:07;;;;;;;;;;;18.10;54.90;;;;;;5085478;27;43430;-84
2024/01/29 00:26:33;;;;;;;;;;;18.00;54.90;;;;;;5085146;27;43021;-83
2024/01/29 00:28:58;;;;;;;;;;;18.10;55.40;;;;;;5085698;28;42881;-84
2024/01/29 00:31:24;;;;;;;;;;;18.00;54.90;;;;;;5083996;28;42920;-83
2024/01/29 00:33:51;;;;;;;;;;;18.00;55.10;;;;;;5083820;27;44102;-85
2024/01/29 00:36:16;;;;;;;;;;;18.00;54.90;;;;;;5085824;27;43003;-84
2024/01/29 00:38:42;;;;;;;;;;;18.00;54.90;;;;;;5086063;27;43912;-85
2024/01/29 00:41:08;;;;;;;;;;;18.00;54.90;;;;;;5085176;27;43047;-84
2024/01/29 00:43:33;;;;;;;;;;;18.00;54.90;;;;;;5085330;27;42947;-83
2024/01/29 00:45:59;;;;;;;;;;;18.10;54.90;;;;;;5085184;27;43142;-84
2024/01/29 00:48:25;;;;;;;;;;;18.00;54.90;;;;;;5085581;27;43748;-84
2024/01/29 00:50:51;;;;;;;;;;;18.00;54.90;;;;;;5085155;27;42889;-84
2024/01/29 00:53:16;;;;;;;;;;;18.00;54.80;;;;;;5085587;28;43606;-84
2024/01/29 00:55:43;;;;;;;;;;;18.00;54.90;;;;;;5084748;27;42962;-78
2024/01/29 00:58:09;;;;;;;;;;;18.00;54.80;;;;;;5085772;28;42889;-84
2024/01/29 01:00:35;;;;;;;;;;;18.00;54.90;;;;;;5085295;27;43023;-85
2024/01/29 01:03:00;;;;;;;;;;;18.00;54.90;;;;;;5083447;28;44498;-83
2024/01/29 01:05:26;;;;;;;;;;;18.00;54.90;;;;;;5085244;27;43064;-82
2024/01/29 01:07:51;;;;;;;;;;;18.00;54.90;;;;;;5084746;27;43345;-82
2024/01/29 01:10:18;;;;;;;;;;;18.00;54.90;;;;;;5085217;28;43000;-84
2024/01/29 01:12:43;;;;;;;;;;;18.00;54.90;;;;;;5084826;27;43685;-84
2024/01/29 01:15:09;;;;;;;;;;;18.00;54.80;;;;;;5084349;27;43043;-79
2024/01/29 01:17:34;;;;;;;;;;;18.00;54.90;;;;;;5085014;28;43713;-84
2024/01/29 01:20:00;;;;;;;;;;;18.00;54.90;;;;;;5084472;27;43361;-84
2024/01/29 01:22:25;;;;;;;;;;;18.00;54.90;;;;;;5084409;27;43065;-85
2024/01/29 01:24:51;;;;;;;;;;;18.00;54.90;;;;;;5084437;27;42968;-84
2024/01/29 01:27:17;;;;;;;;;;;18.00;54.90;;;;;;5085001;28;43017;-84
2024/01/29 01:29:43;;;;;;;;;;;18.00;54.90;;;;;;5084503;27;42992;-84
2024/01/29 01:32:09;;;;;;;;;;;18.00;54.80;;;;;;5084992;27;43672;-82
2024/01/29 01:34:34;;;;;;;;;;;18.00;54.90;;;;;;5084444;27;42995;-84
2024/01/29 01:37:00;;;;;;;;;;;18.00;54.90;;;;;;5084936;28;42830;-85
2024/01/29 01:39:25;;;;;;;;;;;18.00;54.90;;;;;;5084612;27;42846;-83
2024/01/29 01:41:51;;;;;;;;;;;18.00;54.90;;;;;;5084856;28;43047;-85
2024/01/29 01:44:16;;;;;;;;;;;18.00;54.90;;;;;;5084601;27;42997;-83
2024/01/29 01:46:42;;;;;;;;;;;18.00;54.90;;;;;;5083962;27;43603;-84
2024/01/29 01:49:08;;;;;;;;;;;18.00;54.90;;;;;;5084644;28;43134;-84
2024/01/29 01:51:34;;;;;;;;;;;18.00;54.90;;;;;;5085007;27;42763;-85
2024/01/29 01:54:00;;;;;;;;;;;18.00;54.90;;;;;;5088179;27;43062;-83
2024/01/29 01:56:26;;;;;;;;;;;17.90;54.80;;;;;;5098765;27;43918;-83
2024/01/29 01:58:54;;;;;;;;;;;18.00;54.80;;;;;;5084380;28;43024;-85
2024/01/29 02:01:20;;;;;;;;;;;18.00;54.80;;;;;;5083914;27;43102;-83
2024/01/29 02:03:45;;;;;;;;;;;18.00;54.80;;;;;;5083683;28;43139;-85
2024/01/29 02:06:11;;;;;;;;;;;18.00;54.80;;;;;;5084032;27;43011;-84
2024/01/29 02:08:37;;;;;;;;;;;18.00;54.90;;;;;;5083986;27;43017;-84
2024/01/29 02:11:03;;;;;;;;;;;18.00;54.80;;;;;;5084195;28;43891;-83
2024/01/29 02:13:28;;;;;;;;;;;18.00;54.90;;;;;;5083680;27;42945;-84
2024/01/29 02:15:54;;;;;;;;;;;18.00;54.90;;;;;;5084505;28;43039;-83
2024/01/29 02:18:19;;;;;;;;;;;18.00;54.90;;;;;;5079568;27;44164;-84
2024/01/29 02:20:45;;;;;;;;;;;18.00;54.90;;;;;;5076588;28;43456;-84
2024/01/29 02:23:10;;;;;;;;;;;17.90;54.80;;;;;;5083894;27;42912;-84
2024/01/29 02:25:36;;;;;;;;;;;17.90;54.80;;;;;;5085269;27;43584;-82
2024/01/29 02:28:01;;;;;;;;;;;18.00;54.90;;;;;;5087395;28;42926;-84
2024/01/29 02:30:27;;;;;;;;;;;17.90;54.80;;;;;;5087006;27;43705;-83
2024/01/29 02:32:52;;;;;;;;;;;15.10;53.40;;;;;;5087033;27;42933;-84
2024/01/29 02:35:18;;;;;;;;;;;17.90;54.90;;;;;;5087468;28;43912;-84
2024/01/29 02:37:44;;;;;;;;;;;17.90;54.80;;;;;;5087027;27;43074;-80
2024/01/29 02:40:09;;;;;;;;;;;17.90;55.30;;;;;;5087578;28;42948;-84
2024/01/29 02:42:35;;;;;;;;;;;17.90;54.80;;;;;;5087235;28;42929;-83
2024/01/29 02:45:03;;;;;;;;;;;17.90;54.80;;;;;;5087136;27;43038;-84
2024/01/29 02:47:29;;;;;;;;;;;17.90;54.80;;;;;;5086014;27;43212;-83
2024/01/29 02:49:54;;;;;;;;;;;17.90;54.80;;;;;;5084336;28;43690;-84
2024/01/29 02:52:20;;;;;;;;;;;17.90;54.80;;;;;;5086309;28;42968;-85
2024/01/29 02:54:46;;;;;;;;;;;17.90;54.80;;;;;;5086849;27;44312;-82
2024/01/29 02:57:12;;;;;;;;;;;17.90;54.70;;;;;;5087012;27;43591;-83
2024/01/29 02:59:37;;;;;;;;;;;17.90;54.80;;;;;;5086827;28;43614;-84
2024/01/29 03:02:03;;;;;;;;;;;17.90;54.80;;;;;;5086904;27;43227;-84
2024/01/29 03:04:29;;;;;;;;;;;17.90;54.80;;;;;;5087069;28;43427;-85
2024/01/29 03:06:55;;;;;;;;;;;18.90;55.40;;;;;;5086690;28;42886;-84
2024/01/29 03:09:20;;;;;;;;;;;17.90;54.80;;;;;;5086938;28;44122;-83
2024/01/29 03:11:46;;;;;;;;;;;17.90;54.80;;;;;;5084930;28;43081;-84
2024/01/29 03:14:11;;;;;;;;;;;17.90;54.80;;;;;;5086952;27;43577;-84
2024/01/29 03:16:37;;;;;;;;;;;17.90;54.80;;;;;;5085818;27;43130;-84
2024/01/29 03:19:02;;;;;;;;;;;17.90;54.70;;;;;;5085941;27;43529;-84
2024/01/29 03:21:28;;;;;;;;;;;17.90;54.80;;;;;;5084099;28;43575;-82
2024/01/29 03:23:54;;;;;;;;;;;17.90;54.80;;;;;;5086537;27;45380;-85
2024/01/29 03:26:20;;;;;;;;;;;17.90;54.70;;;;;;5084632;27;43064;-84
2024/01/29 03:28:45;;;;;;;;;;;17.90;54.80;;;;;;5085890;27;42889;-83
2024/01/29 03:31:11;;;;;;;;;;;17.90;54.80;;;;;;5085805;27;42902;-84
2024/01/29 03:33:36;;;;;;;;;;;17.90;54.70;;;;;;5086300;28;43020;-83
2024/01/29 03:36:06;;;;;;;;;;;17.90;54.70;;;;;;5085241;27;43020;-84
2024/01/29 03:38:32;;;;;;;;;;;17.90;54.70;;;;;;5084621;27;43980;-83
2024/01/29 03:40:58;;;;;;;;;;;17.90;54.70;;;;;;5086437;27;42863;-84
2024/01/29 03:43:23;;;;;;;;;;;17.90;54.70;;;;;;5086485;27;43572;-84
2024/01/29 03:45:49;;;;;;;;;;;17.90;54.70;;;;;;5085795;27;42938;-82
2024/01/29 03:48:14;;;;;;;;;;;17.90;54.70;;;;;;5086300;27;43079;-85
2024/01/29 03:50:40;;;;;;;;;;;17.90;54.70;;;;;;5086049;28;43002;-84
2024/01/29 03:53:05;;;;;;;;;;;17.90;54.70;;;;;;5085787;27;43059;-84
2024/01/29 03:55:31;;;;;;;;;;;17.90;54.80;;;;;;5084201;28;43595;-82
2024/01/29 03:57:57;;;;;;;;;;;17.90;54.80;;;;;;5087076;27;43371;-83
2024/01/29 04:00:23;;;;;;;;;;;17.90;54.80;;;;;;5084180;28;43125;-83
2024/01/29 04:02:49;;;;;;;;;;;17.80;54.70;;;;;;5078475;28;42880;-84
2024/01/29 04:05:15;;;;;;;;;;;17.90;54.80;;;;;;5077071;28;42897;-87
2024/01/29 04:07:41;;;;;;;;;;;17.90;54.80;;;;;;5074873;28;44105;-85
2024/01/29 04:10:07;;;;;;;;;;;17.80;54.70;;;;;;5081480;28;42925;-85
2024/01/29 04:12:33;;;;;;;;;;;17.80;54.70;;;;;;5100616;27;42957;-85
2024/01/29 04:14:58;;;;;;;;;;;17.90;54.80;;;;;;5089867;27;44089;-86
2024/01/29 04:17:24;;;;;;;;;;;17.80;54.70;;;;;;5085982;28;43066;-86
2024/01/29 04:19:49;;;;;;;;;;;17.90;54.80;;;;;;5086304;28;42965;-85
2024/01/29 04:22:15;;;;;;;;;;;17.90;54.80;;;;;;5085844;28;43938;-84
2024/01/29 04:24:41;;;;;;;;;;;17.90;54.80;;;;;;5085084;28;43340;-85
2024/01/29 04:27:06;;;;;;;;;;;17.90;54.80;;;;;;5085708;28;42890;-86
2024/01/29 04:29:32;;;;;;;;;;;17.90;54.80;;;;;;5085757;28;43266;-84
2024/01/29 04:31:57;;;;;;;;;;;17.80;54.80;;;;;;5085218;28;43035;-82
2024/01/29 04:34:23;;;;;;;;;;;17.90;55.00;;;;;;5083140;28;43055;-84
2024/01/29 04:36:48;;;;;;;;;;;17.90;54.90;;;;;;5085258;28;43667;-85
2024/01/29 04:39:14;;;;;;;;;;;17.80;54.80;;;;;;5083081;27;43056;-83
2024/01/29 04:41:39;;;;;;;;;;;17.80;54.80;;;;;;5077097;28;43038;-83
2024/01/29 04:44:05;;;;;;;;;;;17.80;54.80;;;;;;5086014;28;42922;-84
2024/01/29 04:46:30;;;;;;;;;;;17.80;54.80;;;;;;5085792;27;43350;-85
2024/01/29 04:48:56;;;;;;;;;;;17.80;54.90;;;;;;5084595;27;42943;-81
2024/01/29 04:51:21;;;;;;;;;;;17.80;54.90;;;;;;5085746;28;43038;-84
2024/01/29 04:53:47;;;;;;;;;;;17.80;54.90;;;;;;5082958;28;42951;-83
2024/01/29 04:56:13;;;;;;;;;;;17.80;54.90;;;;;;5075494;27;43189;-83
2024/01/29 04:58:38;;;;;;;;;;;17.80;54.90;;;;;;5082945;27;43011;-78
2024/01/29 05:01:04;;;;;;;;;;;17.80;54.90;;;;;;5084077;27;43524;-83
2024/01/29 05:03:29;;;;;;;;;;;17.80;54.90;;;;;;5084817;27;42955;-83
2024/01/29 05:05:55;;;;;;;;;;;17.80;54.90;;;;;;5079132;27;43605;-84
2024/01/29 05:08:21;;;;;;;;;;;17.80;54.90;;;;;;5084732;28;43065;-83
2024/01/29 05:10:46;;;;;;;;;;;17.80;54.90;;;;;;5083314;28;44638;-81
2024/01/29 05:13:12;;;;;;;;;;;17.80;54.90;;;;;;5085202;27;42899;-84
2024/01/29 05:15:38;;;;;;;;;;;17.80;54.90;;;;;;5085438;28;42758;-85
2024/01/29 05:18:03;;;;;;;;;;;17.80;54.90;;;;;;5085124;27;42869;-85
2024/01/29 05:20:29;;;;;;;;;;;17.80;54.90;;;;;;5077213;27;42912;-84
2024/01/29 05:22:55;;;;;;;;;;;17.80;54.90;;;;;;5084487;27;42838;-79
2024/01/29 05:25:21;;;;;;;;;;;17.80;54.90;;;;;;5085264;27;43272;-83
2024/01/29 05:27:46;;;;;;;;;;;17.80;54.90;;;;;;5082850;28;42853;-80
2024/01/29 05:30:12;;;;;;;;;;;17.80;55.00;;;;;;5081311;28;43429;-81
2024/01/29 05:32:37;;;;;;;;;;;17.80;55.00;;;;;;5079328;27;43752;-81
2024/01/29 05:35:04;;;;;;;;;;;17.80;55.30;;;;;;5079732;28;43065;-82
2024/01/29 05:37:31;;;;;;;;;;;20.50;56.80;;;;;;5078227;27;42964;-80
2024/01/29 05:39:57;;;;;;;;;;;17.80;55.60;;;;;;5081290;27;43820;-81
2024/01/29 05:42:22;;;;;;;;;;;17.80;54.50;;;;;;5082094;28;42813;-83
2024/01/29 05:44:48;;;;;;;;;;;17.80;55.00;;;;;;5072403;28;42912;-93
2024/01/29 05:47:15;;;;;;;;;;;17.80;54.90;;;;;;5072440;28;43238;-92
2024/01/29 05:49:41;;;;;;;;;;;17.80;54.90;;;;;;5083982;27;43574;-86
2024/01/29 05:52:06;;;;;;;;;;;17.80;55.00;;;;;;5084339;28;43090;-83
2024/01/29 05:54:31;;;;;;;;;;;17.80;54.90;;;;;;5084137;27;43408;-94
2024/01/29 05:56:57;;;;;;;;;;;17.80;54.90;;;;;;5084251;28;42993;-76
2024/01/29 05:59:22;;;;;;;;;;;17.80;55.00;;;;;;5083003;27;43761;-91
2024/01/29 06:01:48;;;;;;;;;;;17.80;55.00;;;;;;5083943;27;42940;-80
2024/01/29 06:04:14;;;;;;;;;;;17.80;55.40;;;;;;5080767;27;44590;-81
2024/01/29 06:06:41;;;;;;;;;;;17.80;55.00;;;;;;5081733;28;43110;-79
2024/01/29 06:09:07;;;;;;;;;;;17.80;55.00;;;;;;5081583;27;43334;-77
2024/01/29 06:11:33;;;;;;;;;;;17.80;55.00;;;;;;5083336;28;43071;-88
2024/01/29 06:13:59;;;;;;;;;;;17.80;55.20;;;;;;5083026;27;43157;-88
2024/01/29 06:16:25;;;;;;;;;;;17.80;56.30;;;;;;5076278;27;43055;-85
2024/01/29 06:18:51;;;;;;;;;;;17.80;56.80;;;;;;5082604;28;43606;-86
2024/01/29 06:21:16;;;;;;;;;;;17.80;56.80;;;;;;5082872;28;42976;-81
2024/01/29 06:23:42;;;;;;;;;;;17.80;56.60;;;;;;5083784;27;42960;-87
2024/01/29 06:26:07;;;;;;;;;;;17.80;56.40;;;;;;5084014;28;43116;-85
2024/01/29 06:28:33;;;;;;;;;;;17.80;56.30;;;;;;5087486;28;43371;-86
2024/01/29 06:30:58;;;;;;;;;;;17.80;56.20;;;;;;5083756;28;42952;-86
2024/01/29 06:33:24;;;;;;;;;;;17.80;56.20;;;;;;5083037;28;43073;-86
2024/01/29 06:35:51;;;;;;;;;;;17.80;56.20;;;;;;5083780;27;43005;-87
2024/01/29 06:38:17;;;;;;;;;;;17.80;56.10;;;;;;5083329;28;43100;-85
2024/01/29 06:40:43;;;;;;;;;;;17.80;56.10;;;;;;5083647;27;43085;-82
2024/01/29 06:43:08;;;;;;;;;;;17.80;56.10;;;;;;5083336;28;43040;-81
2024/01/29 06:45:35;;;;;;;;;;;17.80;56.10;;;;;;5083128;27;42784;-92
2024/01/29 06:48:01;;;;;;;;;;;17.80;56.20;;;;;;5084095;28;43330;-82
2024/01/29 06:50:27;;;;;;;;;;;17.80;56.10;;;;;;5083669;28;43039;-87
2024/01/29 06:52:52;;;;;;;;;;;17.80;56.10;;;;;;5084140;27;42842;-80
2024/01/29 06:55:20;;;;;;;;;;;17.70;56.20;;;;;;5083911;27;42964;-83
2024/01/29 06:57:48;;;;;;;;;;;17.80;56.10;;;;;;5084533;27;43036;-92
2024/01/29 07:00:14;;;;;;;;;;;17.80;56.00;;;;;;5084583;27;42944;-91
2024/01/29 07:02:39;;;;;;;;;;;17.80;56.10;;;;;;5084872;27;43491;-84
2024/01/29 07:05:05;;;;;;;;;;;17.70;56.10;;;;;;5083637;28;43090;-92
2024/01/29 07:07:30;;;;;;;;;;;17.70;56.10;;;;;;5084895;28;43872;-90
2024/01/29 07:09:56;;;;;;;;;;;17.70;56.10;;;;;;5083878;27;43559;-91
2024/01/29 07:12:21;;;;;;;;;;;17.70;56.10;;;;;;5087031;27;43655;-87
2024/01/29 07:14:47;;;;;;;;;;;17.70;56.10;;;;;;5087212;27;42996;-92
2024/01/29 07:17:12;;;;;;;;;;;17.70;56.00;;;;;;5086971;27;43299;-86
2024/01/29 07:19:39;;;;;;;;;;;17.70;55.90;;;;;;5086544;27;42974;-84
2024/01/29 07:22:05;;;;;;;;;;;17.70;55.90;;;;;;5087508;28;43019;-93
2024/01/29 07:24:31;;;;;;;;;;;17.70;56.20;;;;;;5087297;27;42985;-92
2024/01/29 07:26:58;;;;;;;;;;;17.80;55.80;;;;;;5086903;27;42888;-88
2024/01/29 07:29:26;;;;;;;;;;;17.70;55.80;;;;;;5087073;28;42914;-87
2024/01/29 07:31:54;;;;;;;;;;;17.70;55.60;;;;;;5086943;27;43488;-89
2024/01/29 07:34:20;;;;;;;;;;;17.70;55.60;;;;;;5087751;27;43000;-87
2024/01/29 07:36:46;;;;;;;;;;;17.70;55.50;;;;;;5087517;27;43166;-93
2024/01/29 07:39:12;;;;;;;;;;;17.70;55.50;;;;;;5087818;27;43112;-93
2024/01/29 07:41:41;;;;;;;;;;;17.80;55.50;;;;;;5087134;27;42891;-87
2024/01/29 07:44:07;;;;;;;;;;;17.70;55.40;;;;;;5087027;27;42886;-86
2024/01/29 07:46:33;;;;;;;;;;;17.80;55.50;;;;;;5086818;27;43189;-92
2024/01/29 07:49:01;;;;;;;;;;;17.70;55.60;;;;;;5085843;27;42952;-91
2024/01/29 07:51:27;;;;;;;;;;;17.80;55.80;;;;;;5085988;28;43415;-90
2024/01/29 07:53:52;;;;;;;;;;;17.80;55.90;;;;;;5086127;27;42919;-90
2024/01/29 07:56:18;;;;;;;;;;;17.80;55.60;;;;;;5085992;27;43957;-90
2024/01/29 07:58:44;;;;;;;;;;;17.70;55.60;;;;;;5086231;27;42925;-92
2024/01/29 08:01:09;;;;;;;;;;;17.80;55.60;;;;;;5086648;27;43392;-84
2024/01/29 08:03:35;;;;;;;;;;;17.80;55.70;;;;;;5086602;27;42945;-79
2024/01/29 08:06:01;;;;;;;;;;;17.70;55.20;;;;;;5085096;28;45358;-90
2024/01/29 08:08:26;;;;;;;;;;;17.80;55.70;;;;;;5086767;27;42837;-83
2024/01/29 08:10:52;;;;;;;;;;;17.80;55.70;;;;;;5085240;27;44899;-85
2024/01/29 08:13:17;;;;;;;;;;;17.80;55.70;;;;;;5086661;28;43171;-78
2024/01/29 08:15:43;;;;;;;;;;;18.20;56.30;;;;;;5085986;27;43769;-85
2024/01/29 08:18:08;;;;;;;;;;;17.70;55.70;;;;;;5086134;28;43019;-86
2024/01/29 08:20:34;;;;;;;;;;;17.70;55.70;;;;;;5086394;27;43869;-93
2024/01/29 08:23:00;;;;;;;;;;;17.70;55.20;;;;;;5084105;27;42870;-92
2024/01/29 08:25:26;;;;;;;;;;;17.70;55.70;;;;;;5086481;28;43517;-85
2024/01/29 08:27:51;;;;;;;;;;;17.70;55.70;;;;;;5085129;28;43213;-87
2024/01/29 08:30:17;;;;;;;;;;;17.70;55.70;;;;;;5086591;27;42878;-84
2024/01/29 08:32:43;;;;;;;;;;;17.70;55.80;;;;;;5086464;28;42986;-86
2024/01/29 08:35:10;;;;;;;;;;;17.70;55.70;;;;;;5086656;27;42753;-89
2024/01/29 08:37:35;;;;;;;;;;;17.70;55.80;;;;;;5085275;27;43000;-92
2024/01/29 08:40:01;;;;;;;;;;;17.70;55.70;;;;;;5086407;27;43053;-84
2024/01/29 08:42:28;;;;;;;;;;;17.70;55.70;;;;;;5073297;27;42898;-84
2024/01/29 08:44:56;;;;;;;;;;;17.70;55.70;;;;;;5079396;27;42948;-94
2024/01/29 08:47:22;;;;;;;;;;;17.70;55.70;;;;;;5086018;27;43012;-91
2024/01/29 08:49:49;;;;;;;;;;;17.70;55.70;;;;;;5085657;27;43397;-91
2024/01/29 08:52:15;;;;;;;;;;;17.70;55.70;;;;;;5074029;28;43211;-89
2024/01/29 08:54:41;;;;;;;;;;;17.70;55.70;;;;;;5086104;27;42923;-91
2024/01/29 08:57:06;;;;;;;;;;;17.70;55.70;;;;;;5086425;28;42788;-89
2024/01/29 08:59:32;;;;;;;;;;;17.70;55.70;;;;;;5084632;27;43004;-86
2024/01/29 09:01:57;;;;;;;;;;;17.70;55.80;;;;;;5086074;27;42945;-91
2024/01/29 09:04:23;;;;;;;;;;;17.70;55.60;;;;;;5084519;27;43643;-91
2024/01/29 09:06:50;;;;;;;;;;;17.70;55.70;;;;;;5086391;27;42854;-87
2024/01/29 09:09:16;;;;;;;;;;;17.70;55.60;;;;;;5085145;27;43773;-84
2024/01/29 09:11:41;;;;;;;;;;;17.70;55.60;;;;;;5084999;28;43240;-91
2024/01/29 09:14:07;;;;;;;;;;;17.30;56.70;;;;;;5084612;28;43392;-87
2024/01/29 09:16:32;;;;;;;;;;;17.70;55.60;;;;;;5085457;27;43150;-93
2024/01/29 09:18:58;;;;;;;;;;;17.70;55.60;;;;;;5085183;28;44353;-92
2024/01/29 09:21:25;;;;;;;;;;;17.70;55.50;;;;;;5085023;27;42951;-91
2024/01/29 09:23:51;;;;;;;;;;;22.10;58.60;;;;;;5083736;27;44469;-92
2024/01/29 09:26:17;;;;;;;;;;;17.70;55.40;;;;;;5083666;28;42971;-91
2024/01/29 09:28:43;;;;;;;;;;;17.70;55.40;;;;;;5085049;27;42998;-91
2024/01/29 09:31:09;;;;;;;;;;;17.70;55.40;;;;;;5085486;27;43013;-90
2024/01/29 09:33:35;;;;;;;;;;;17.70;55.20;;;;;;5085330;28;43318;-89
2024/01/29 09:36:01;;;;;;;;;;;17.70;55.30;;;;;;5085630;27;42960;-91
2024/01/29 09:38:27;;;;;;;;;;;17.70;55.30;;;;;;5085516;27;43881;-88
2024/01/29 09:40:54;;;;;;;;;;;17.70;55.20;;;;;;5072634;28;42822;-90
2024/01/29 09:43:20;;;;;;;;;;;17.70;55.30;;;;;;5085776;27;43241;-92
2024/01/29 09:45:48;;;;;;;;;;;17.70;55.10;;;;;;5083954;27;43005;-91
2024/01/29 09:48:15;;;;;;;;;;;17.70;54.90;;;;;;5085292;27;43604;-88
2024/01/29 09:50:42;;;;;;;;;;;17.70;55.00;;;;;;5085186;27;43179;-87
2024/01/29 09:53:08;;;;;;;;;;;17.70;54.90;;;;;;5085202;27;43545;-91
2024/01/29 09:55:34;;;;;;;;;;;17.70;54.80;;;;;;5084905;28;42913;-91
2024/01/29 09:57:59;;;;;;;;;;;17.70;54.80;;;;;;5084168;28;43039;-87
2024/01/29 10:00:25;;;;;;;;;;;17.70;54.90;;;;;;5084776;27;43127;-91
2024/01/29 10:02:53;;;;;;;;;;;17.70;54.80;;;;;;5085045;28;43266;-91
2024/01/29 10:05:18;;;;;;;;;;;17.70;54.70;;;;;;5073041;28;43063;-88
2024/01/29 10:07:44;;;;;;;;;;;17.70;54.70;;;;;;5085562;28;43455;-81
2024/01/29 10:10:10;;;;;;;;;;;17.70;54.70;;;;;;5085889;27;42945;-88
2024/01/29 10:12:36;;;;;;;;;;;17.70;54.60;;;;;;5085341;27;43716;-91
2024/01/29 10:15:02;;;;;;;;;;;17.70;54.60;;;;;;5084869;27;42992;-92
2024/01/29 10:17:28;;;;;;;;;;;17.70;54.60;;;;;;5084625;27;42976;-90
2024/01/29 10:19:53;;;;;;;;;;;17.70;54.80;;;;;;5084884;27;42932;-90
2024/01/29 10:22:24;;;;;;;;;;;17.70;55.50;;;;;;5083293;28;44354;-92
2024/01/29 10:24:59;;;;;;;;;;;17.70;54.60;;;;;;5085024;27;42975;-91
2024/01/29 10:27:25;;;;;;;;;;;17.70;54.60;;;;;;5084598;28;42932;-92
2024/01/29 10:29:51;;;;;;;;;;;17.70;54.80;;;;;;5083539;28;42985;-87
2024/01/29 10:32:16;;;;;;;;;;;17.70;54.10;;;;;;5083966;27;43024;-91
2024/01/29 10:34:42;;;;;;;;;;;17.80;54.90;;;;;;5084891;27;43907;-88
2024/01/29 10:37:10;;;;;;;;;;;17.70;54.60;;;;;;5084376;27;43364;-92
2024/01/29 10:39:36;;;;;;;;;;;14.00;52.70;;;;;;5084410;27;43127;-91
2024/01/29 10:42:02;;;;;;;;;;;17.70;54.60;;;;;;5084094;27;43592;-92
2024/01/29 10:44:31;;;;;;;;;;;17.60;55.50;;;;;;5084799;27;43116;-90
2024/01/29 10:46:58;;;;;;;;;;;17.70;54.60;;;;;;5086584;27;43122;-91
2024/01/29 10:49:24;;;;;;;;;;;17.70;54.50;;;;;;5088018;27;42924;-90
2024/01/29 10:51:51;;;;;;;;;;;17.70;54.50;;;;;;5087466;27;43526;-86
2024/01/29 10:54:17;;;;;;;;;;;17.70;54.60;;;;;;5086961;28;42982;-90
2024/01/29 10:56:43;;;;;;;;;;;17.70;54.60;;;;;;5087919;27;42954;-90
2024/01/29 10:59:12;;;;;;;;;;;17.70;55.00;;;;;;5088328;28;43006;-91
2024/01/29 11:01:37;;;;;;;;;;;17.70;54.80;;;;;;5093320;27;43743;-90
2024/01/29 11:04:03;;;;;;;;;;;17.60;54.60;;;;;;5089451;27;42820;-90
2024/01/29 11:06:29;;;;;;;;;;;17.70;54.80;;;;;;5087154;27;42900;-85
2024/01/29 11:08:57;;;;;;;;;;;17.70;54.70;;;;;;5088157;27;42928;-91
2024/01/29 11:11:23;;;;;;;;;;;17.70;54.70;;;;;;5087345;27;42822;-92
2024/01/29 11:13:49;;;;;;;;;;;17.70;54.50;;;;;;5087677;27;42971;-86
2024/01/29 11:16:15;;;;;;;;;;;17.60;54.60;;;;;;5086844;27;42930;-84
2024/01/29 11:18:41;;;;;;;;;;;17.20;55.40;;;;;;5075143;28;43141;-90
2024/01/29 11:21:10;;;;;;;;;;;17.70;54.40;;;;;;5070292;27;45132;-91
2024/01/29 11:23:48;;;;;;;;;;;17.70;54.70;;;;;;5086171;28;42957;-90
2024/01/29 11:26:15;;;;;;;;;;;17.70;54.60;;;;;;5087058;28;42991;-81
2024/01/29 11:28:40;;;;;;;;;;;17.70;54.80;;;;;;5087594;27;42952;-91
2024/01/29 11:31:12;;;;;;;;;;;17.70;54.80;;;;;;5087468;27;42973;-90
2024/01/29 11:33:38;;;;;;;;;;;17.60;54.70;;;;;;5087027;27;42902;-91
2024/01/29 11:36:10;;;;;;;;;;;17.60;54.80;;;;;;5086889;28;43044;-91
2024/01/29 11:38:36;;;;;;;;;;;17.60;54.80;;;;;;5087029;27;42788;-91
2024/01/29 11:41:02;;;;;;;;;;;17.60;54.90;;;;;;5086435;28;43076;-92
2024/01/29 11:43:28;;;;;;;;;;;19.10;56.30;;;;;;5086303;28;42901;-87
2024/01/29 11:45:54;;;;;;;;;;;17.60;54.80;;;;;;5086567;28;42892;-91
2024/01/29 11:48:21;;;;;;;;;;;17.60;54.80;;;;;;5086830;28;42968;-79
2024/01/29 11:50:47;;;;;;;;;;;17.60;54.70;;;;;;5086406;28;43957;-78
2024/01/29 11:53:14;;;;;;;;;;;17.60;54.70;;;;;;5086272;28;42874;-81
2024/01/29 11:55:40;;;;;;;;;;;17.60;54.70;;;;;;5086301;27;43312;-90
2024/01/29 11:58:11;;;;;;;;;;;17.60;54.70;;;;;;5086104;27;42946;-85
2024/01/29 12:00:36;;;;;;;;;;;17.60;54.70;;;;;;5086754;27;43516;-84
2024/01/29 12:03:02;;;;;;;;;;;17.60;54.70;;;;;;5086147;27;42959;-78
2024/01/29 12:05:28;;;;;;;;;;;17.60;54.60;;;;;;5086879;28;42790;-81
2024/01/29 12:07:54;;;;;;;;;;;17.60;54.70;;;;;;5086306;28;42790;-83
2024/01/29 12:10:19;;;;;;;;;;;17.00;55.80;;;;;;5085047;28;45256;-81
2024/01/29 12:12:45;;;;;;;;;;;17.60;54.60;;;;;;5086135;27;43137;-81
2024/01/29 12:15:11;;;;;;;;;;;17.60;54.60;;;;;;5085754;27;43605;-86
2024/01/29 12:17:38;;;;;;;;;;;17.60;54.40;;;;;;5085682;27;43031;-90
2024/01/29 12:20:05;;;;;;;;;;;17.60;54.30;;;;;;5085860;27;43328;-86
2024/01/29 12:22:31;;;;;;;;;;;17.60;54.30;;;;;;5085998;27;42906;-90
2024/01/29 12:24:57;;;;;;;;;;;17.60;54.20;;;;;;5086227;27;43003;-91
2024/01/29 12:27:23;;;;;;;;;;;17.60;54.30;;;;;;5085648;27;43074;-80
2024/01/29 12:29:48;;;;;;;;;;;17.60;54.30;;;;;;5082780;27;43651;-92
2024/01/29 12:32:19;;;;;;;;;;;17.60;54.20;;;;;;5072902;27;42929;-85
2024/01/29 12:34:45;;;;;;;;;;;17.50;47.50;;;;;;5083898;27;42950;-85
2024/01/29 12:37:18;;;;;;;;;;;17.40;48.20;;;;;;5081286;27;44305;-79
2024/01/29 12:39:51;;;;;;;;;;;17.30;45.60;;;;;;5077095;28;43947;-79
2024/01/29 12:42:16;;;;;;;;;;;17.20;42.80;;;;;;5085836;27;42952;-78
2024/01/29 12:44:42;;;;;;;;;;;17.00;41.90;;;;;;5085844;28;43878;-79
2024/01/29 12:47:20;;;;;;;;;;;16.80;41.60;;;;;;5085186;28;43016;-78
2024/01/29 12:49:46;;;;;;;;;;;16.70;42.00;;;;;;5085856;28;43101;-80
2024/01/29 12:52:12;;;;;;;;;;;16.50;41.20;;;;;;5085045;27;42846;-80
2024/01/29 12:54:37;;;;;;;;;;;16.50;42.00;;;;;;5085904;27;42756;-80
2024/01/29 12:57:05;;;;;;;;;;;16.50;40.80;;;;;;5085798;28;42917;-81
2024/01/29 12:59:30;;;;;;;;;;;16.40;40.60;;;;;;5086118;27;43435;-80
2024/01/29 13:01:57;;;;;;;;;;;16.40;39.90;;;;;;5102203;27;42984;-80
2024/01/29 13:04:23;;;;;;;;;;;16.40;40.10;;;;;;5085980;28;43533;-79
2024/01/29 13:06:48;;;;;;;;;;;16.40;40.20;;;;;;5085358;27;43339;-80
2024/01/29 13:09:14;;;;;;;;;;;16.30;39.70;;;;;;5085017;27;42969;-78
2024/01/29 13:11:39;;;;;;;;;;;16.10;39.40;;;;;;5077538;28;43187;-78
2024/01/29 13:14:05;;;;;;;;;;;15.80;40.20;;;;;;5071164;28;43126;-81
2024/01/29 13:16:31;;;;;;;;;;;16.20;40.40;;;;;;5076894;27;42972;-82
2024/01/29 13:18:57;;;;;;;;;;;16.40;41.60;;;;;;5092394;27;43420;-78
2024/01/29 13:21:22;;;;;;;;;;;16.40;41.70;;;;;;5090202;28;43039;-76
2024/01/29 13:23:48;;;;;;;;;;;12.50;40.20;;;;;;5086701;28;43608;-80
2024/01/29 13:26:14;;;;;;;;;;;16.60;43.60;;;;;;5078177;28;43026;-81
2024/01/29 13:28:40;;;;;;;;;;;16.70;43.20;;;;;;5083390;28;43759;-81
2024/01/29 13:31:05;;;;;;;;;;;16.80;44.00;;;;;;5077518;27;43006;-81
2024/01/29 13:33:31;;;;;;;;;;;16.80;44.40;;;;;;5084124;28;43512;-81
2024/01/29 13:35:57;;;;;;;;;;;17.10;44.80;;;;;;5084275;28;42870;-81
2024/01/29 13:38:23;;;;;;;;;;;17.00;44.90;;;;;;5084447;28;43786;-78
2024/01/29 13:40:50;;;;;;;;;;;17.10;46.20;;;;;;5084309;28;42946;-81
2024/01/29 13:43:17;;;;;;;;;;;17.10;45.40;;;;;;5083637;28;43892;-80
2024/01/29 13:45:43;;;;;;;;;;;17.10;45.80;;;;;;5084821;28;43207;-80
2024/01/29 13:48:09;;;;;;;;;;;17.20;46.00;;;;;;5083640;28;42838;-81
2024/01/29 13:50:35;;;;;;;;;;;17.10;45.70;;;;;;5084344;28;42904;-80
2024/01/29 13:53:00;;;;;;;;;;;17.20;46.50;;;;;;5083128;27;43137;-81
2024/01/29 13:55:26;;;;;;;;;;;17.30;46.60;;;;;;5084273;28;42819;-80
2024/01/29 13:57:51;;;;;;;;;;;17.50;47.20;;;;;;5081281;28;43919;-80
2024/01/29 14:00:17;;;;;;;;;;;17.30;47.10;;;;;;5082343;28;43058;-80
2024/01/29 14:02:43;;;;;;;;;;;17.40;47.00;;;;;;5082565;27;43702;-81
2024/01/29 14:05:09;;;;;;;;;;;17.40;47.20;;;;;;5082145;27;43033;-81
2024/01/29 14:07:34;;;;;;;;;;;17.40;47.50;;;;;;5081861;27;43429;-80
2024/01/29 14:10:00;;;;;;;;;;;17.40;47.50;;;;;;5080030;28;42991;-81